createdAt,value
2022-08-03T00:01:25.848Z,14.30
2022-08-03T00:03:53.134Z,14.98
2022-08-03T00:06:20.299Z,13.13
2022-08-03T00:08:47.459Z,15.70
2022-08-03T00:11:14.777Z,13.48
2022-08-03T00:13:41.921Z,14.32
2022-08-03T00:16:09.120Z,12.07
2022-08-03T00:18:36.332Z,14.70
2022-08-03T00:21:04.182Z,12.65
2022-08-03T00:23:52.171Z,15.57
2022-08-03T00:26:18.616Z,13.88
2022-08-03T00:28:45.802Z,14.75
2022-08-03T00:31:13.539Z,15.90
2022-08-03T00:33:59.205Z,13.13
2022-08-03T00:36:27.700Z,13.00
2022-08-03T00:38:55.432Z,13.52
2022-08-03T00:41:22.659Z,13.48
2022-08-03T00:43:49.804Z,15.15
2022-08-03T00:46:21.436Z,15.60
2022-08-03T00:48:50.169Z,13.60
2022-08-03T00:51:17.509Z,14.35
2022-08-03T00:53:45.770Z,14.77
2022-08-03T00:56:16.454Z,14.10
2022-08-03T00:58:46.933Z,14.75
2022-08-03T01:01:14.742Z,14.80
2022-08-03T01:03:42.122Z,15.85
2022-08-03T01:06:19.621Z,13.68
2022-08-03T01:08:49.568Z,12.00
2022-08-03T01:11:35.636Z,15.23
2022-08-03T01:14:28.665Z,14.63
2022-08-03T01:17:20.175Z,13.05
2022-08-03T01:19:51.839Z,15.90
2022-08-03T01:22:24.908Z,14.98
2022-08-03T01:25:01.062Z,14.18
2022-08-03T01:27:52.150Z,16.95
2022-08-03T01:30:19.733Z,15.82
2022-08-03T01:33:07.429Z,13.57
2022-08-03T01:35:42.367Z,16.02
2022-08-03T01:38:14.445Z,15.75
2022-08-03T01:40:43.409Z,14.70
2022-08-03T01:43:12.024Z,15.95
2022-08-03T01:45:41.894Z,16.52
2022-08-03T01:48:10.117Z,14.55
2022-08-03T01:50:37.734Z,14.93
2022-08-03T01:53:05.595Z,15.00
2022-08-03T01:55:33.923Z,13.70
2022-08-03T01:58:04.574Z,14.63
2022-08-03T02:00:34.174Z,12.80
2022-08-03T02:03:02.077Z,14.90
2022-08-03T02:05:30.131Z,14.40
2022-08-03T02:07:57.870Z,15.65
2022-08-03T02:10:35.259Z,17.02
2022-08-03T02:13:03.910Z,16.75
2022-08-03T02:15:31.502Z,15.32
2022-08-03T02:17:59.347Z,17.40
2022-08-03T02:20:28.069Z,14.73
2022-08-03T02:22:55.356Z,19.60
2022-08-03T02:25:22.610Z,14.20
2022-08-03T02:27:53.059Z,17.63
2022-08-03T02:30:20.983Z,18.98
2022-08-03T02:32:55.444Z,15.38
2022-08-03T02:35:24.254Z,15.65
2022-08-03T02:37:53.362Z,18.67
2022-08-03T02:40:22.231Z,15.05
2022-08-03T02:42:52.657Z,16.85
2022-08-03T02:45:21.106Z,16.80
2022-08-03T02:47:54.218Z,18.58
2022-08-03T02:50:22.740Z,18.58
2022-08-03T02:52:50.549Z,17.02
2022-08-03T02:55:18.929Z,19.13
2022-08-03T02:57:47.311Z,16.83
2022-08-03T03:00:27.326Z,15.95
2022-08-03T03:02:57.997Z,16.80
2022-08-03T03:05:54.774Z,19.25
2022-08-03T03:08:18.662Z,16.50
2022-08-03T03:10:48.027Z,19.13
2022-08-03T03:13:16.734Z,16.25
2022-08-03T03:15:45.912Z,17.77
2022-08-03T03:18:13.605Z,17.48
2022-08-03T03:20:41.124Z,16.48
2022-08-03T03:23:09.802Z,15.25
2022-08-03T03:25:37.234Z,16.67
2022-08-03T03:28:06.444Z,15.88
2022-08-03T03:30:33.926Z,14.82
2022-08-03T03:33:02.927Z,15.23
2022-08-03T03:35:30.364Z,17.15
2022-08-03T03:37:57.596Z,16.10
2022-08-03T03:40:25.293Z,15.40
2022-08-03T03:42:52.602Z,14.50
2022-08-03T03:45:20.110Z,16.50
2022-08-03T03:47:47.446Z,14.70
2022-08-03T03:50:16.158Z,16.77
2022-08-03T03:52:43.319Z,16.52
2022-08-03T03:55:10.602Z,17.15
2022-08-03T03:57:37.746Z,13.20
2022-08-03T04:00:06.123Z,12.32
2022-08-03T04:02:33.609Z,12.57
2022-08-03T04:05:19.616Z,13.18
2022-08-03T04:08:17.721Z,14.98
2022-08-03T04:11:00.122Z,15.18
2022-08-03T04:13:38.591Z,12.23
2022-08-03T04:16:06.772Z,15.43
2022-08-03T04:18:35.463Z,13.10
2022-08-03T04:21:04.350Z,12.60
2022-08-03T04:23:32.315Z,13.88
2022-08-03T04:26:00.025Z,16.60
2022-08-03T04:28:30.672Z,14.57
2022-08-03T04:30:59.851Z,12.77
2022-08-03T04:33:29.544Z,10.70
2022-08-03T04:36:02.775Z,13.02
2022-08-03T04:38:32.216Z,11.15
2022-08-03T04:41:00.066Z,12.75
2022-08-03T04:43:27.588Z,11.45
2022-08-03T04:45:55.633Z,12.63
2022-08-03T04:48:23.062Z,9.80
2022-08-03T04:50:50.499Z,12.02
2022-08-03T04:53:18.261Z,11.30
2022-08-03T04:55:46.950Z,13.38
2022-08-03T04:58:14.125Z,8.82
2022-08-03T05:00:42.281Z,11.75
2022-08-03T05:03:23.594Z,8.77
2022-08-03T05:06:09.436Z,11.55
2022-08-03T05:08:46.336Z,10.60
2022-08-03T05:11:15.190Z,8.52
2022-08-03T05:13:42.462Z,10.40
2022-08-03T05:16:09.807Z,10.02
2022-08-03T05:18:37.079Z,7.95
2022-08-03T05:21:05.007Z,10.77
2022-08-03T05:23:32.339Z,8.25
2022-08-03T05:25:59.573Z,7.28
2022-08-03T05:28:26.720Z,11.23
2022-08-03T05:30:53.903Z,10.00
2022-08-03T05:33:21.092Z,12.10
2022-08-03T05:35:55.818Z,9.95
2022-08-03T05:38:35.045Z,11.98
2022-08-03T05:41:22.065Z,9.00
2022-08-03T05:43:50.431Z,10.75
2022-08-03T05:46:18.501Z,8.55
2022-08-03T05:48:45.712Z,10.80
2022-08-03T05:51:13.654Z,10.27
2022-08-03T05:53:41.656Z,9.48
2022-08-03T05:56:15.249Z,8.50
2022-08-03T05:58:44.470Z,8.80
2022-08-03T06:01:11.863Z,10.23
2022-08-03T06:03:39.149Z,12.18
2022-08-03T06:06:06.473Z,10.35
2022-08-03T06:08:33.625Z,11.90
2022-08-03T06:11:00.779Z,13.77
2022-08-03T06:13:28.031Z,8.82
2022-08-03T06:15:55.201Z,10.52
2022-08-03T06:18:24.001Z,11.45
2022-08-03T06:20:52.338Z,9.98
2022-08-03T06:23:19.722Z,7.82
2022-08-03T06:25:47.395Z,10.30
2022-08-03T06:31:02.679Z,8.45
2022-08-03T06:34:31.457Z,8.60
2022-08-03T06:36:17.252Z,9.30
2022-08-03T06:38:44.535Z,9.10
2022-08-03T06:41:11.670Z,11.52
2022-08-03T06:44:03.429Z,7.35
2022-08-03T06:46:26.163Z,11.00
2022-08-03T06:48:53.768Z,8.93
2022-08-03T06:51:20.965Z,8.48
2022-08-03T06:54:08.194Z,9.50
2022-08-03T06:56:35.330Z,8.70
2022-08-03T06:59:02.469Z,11.20
2022-08-03T07:01:29.783Z,9.07
2022-08-03T07:03:57.242Z,8.65
2022-08-03T07:06:24.735Z,8.05
2022-08-03T07:08:54.492Z,9.07
2022-08-03T07:11:23.751Z,9.43
2022-08-03T07:13:50.929Z,7.93
2022-08-03T07:16:18.143Z,9.15
2022-08-03T07:18:45.297Z,10.00
2022-08-03T07:21:12.845Z,8.73
2022-08-03T07:23:40.151Z,9.05
2022-08-03T07:26:07.300Z,8.20
2022-08-03T07:28:34.526Z,10.68
2022-08-03T07:31:01.766Z,9.80
2022-08-03T07:33:28.967Z,8.90
2022-08-03T07:35:56.115Z,11.25
2022-08-03T07:38:23.354Z,11.27
2022-08-03T07:40:50.504Z,10.02
2022-08-03T07:43:17.741Z,9.02
2022-08-03T07:45:45.043Z,8.98
2022-08-03T07:48:12.764Z,11.57
2022-08-03T07:50:40.106Z,10.25
2022-08-03T07:53:07.406Z,9.63
2022-08-03T07:55:35.177Z,10.73
2022-08-03T07:58:05.270Z,10.40
2022-08-03T08:00:32.974Z,9.38
2022-08-03T08:03:00.238Z,11.30
2022-08-03T08:05:28.120Z,11.13
2022-08-03T08:07:55.538Z,8.13
2022-08-03T08:10:22.930Z,8.82
2022-08-03T08:12:50.339Z,9.77
2022-08-03T08:15:17.746Z,9.82
2022-08-03T08:17:46.466Z,11.43
2022-08-03T08:20:17.446Z,10.35
2022-08-03T08:22:51.741Z,11.38
2022-08-03T08:25:19.556Z,10.00
2022-08-03T08:28:29.418Z,10.75
2022-08-03T08:30:35.350Z,8.20
2022-08-03T08:33:02.579Z,8.80
2022-08-03T08:35:29.833Z,9.95
2022-08-03T08:37:57.037Z,11.15
2022-08-03T08:40:25.746Z,9.00
2022-08-03T08:42:59.924Z,8.80
2022-08-03T08:45:28.094Z,9.63
2022-08-03T08:48:00.412Z,11.07
2022-08-03T08:50:30.462Z,9.05
2022-08-03T08:53:01.124Z,12.05
2022-08-03T08:55:28.384Z,11.32
2022-08-03T08:57:59.785Z,10.50
2022-08-03T09:00:26.990Z,10.50
2022-08-03T09:02:54.270Z,8.68
2022-08-03T09:05:35.785Z,9.50
2022-08-03T09:08:09.183Z,9.50
2022-08-03T09:10:36.543Z,10.15
2022-08-03T09:13:03.690Z,13.10
2022-08-03T09:15:34.018Z,9.65
2022-08-03T09:20:29.682Z,13.38
2022-08-03T09:22:59.323Z,9.45
2022-08-03T09:25:33.852Z,9.68
2022-08-03T09:28:08.732Z,10.00
2022-08-03T09:30:36.724Z,9.43
2022-08-03T09:33:05.042Z,8.93
2022-08-03T09:35:53.056Z,11.93
2022-08-03T09:38:24.197Z,13.73
2022-08-03T09:40:54.763Z,12.18
2022-08-03T09:43:26.005Z,14.85
2022-08-03T09:46:02.783Z,10.27
2022-08-03T09:48:30.808Z,14.18
2022-08-03T09:51:13.438Z,13.02
2022-08-03T09:53:58.482Z,11.05
2022-08-03T09:56:38.388Z,11.05
2022-08-03T09:59:05.773Z,11.48
2022-08-03T10:01:34.842Z,13.45
2022-08-03T10:04:03.868Z,16.55
2022-08-03T10:06:31.959Z,12.63
2022-08-03T10:09:07.017Z,13.75
2022-08-03T10:11:41.248Z,12.20
2022-08-03T10:14:10.574Z,11.32
2022-08-03T10:16:40.103Z,11.90
2022-08-03T10:19:08.283Z,12.15
2022-08-03T10:21:36.972Z,10.63
2022-08-03T10:24:05.943Z,11.00
2022-08-03T10:26:37.366Z,10.45
2022-08-03T10:29:12.349Z,11.32
2022-08-03T10:31:55.885Z,12.23
2022-08-03T10:34:27.773Z,11.68
2022-08-03T10:36:57.962Z,12.85
2022-08-03T10:39:28.492Z,12.55
2022-08-03T10:41:58.226Z,11.43
2022-08-03T10:44:26.823Z,13.52
2022-08-03T10:46:54.253Z,10.90
2022-08-03T10:49:34.434Z,12.00
2022-08-03T10:52:06.576Z,11.95
2022-08-03T10:55:07.580Z,11.68
2022-08-03T10:57:49.012Z,10.52
2022-08-03T11:00:21.646Z,11.30
2022-08-03T11:03:18.727Z,10.48
2022-08-03T11:05:46.993Z,10.13
2022-08-03T11:08:26.521Z,10.80
2022-08-03T11:10:55.267Z,9.27
2022-08-03T11:13:23.686Z,11.73
2022-08-03T11:15:52.696Z,8.90
2022-08-03T11:18:20.141Z,9.35
2022-08-03T11:20:48.209Z,13.00
2022-08-03T11:23:16.326Z,11.27
2022-08-03T11:26:15.953Z,9.38
2022-08-03T11:28:44.546Z,10.15
2022-08-03T11:31:48.071Z,11.40
2022-08-03T11:34:11.643Z,11.23
2022-08-03T11:36:58.365Z,8.70
2022-08-03T11:39:38.663Z,9.50
2022-08-03T11:42:31.552Z,11.00
2022-08-03T11:44:59.542Z,10.77
2022-08-03T11:47:27.941Z,11.40
2022-08-03T11:49:57.327Z,9.02
2022-08-03T11:52:27.005Z,10.07
2022-08-03T11:54:56.670Z,11.23
2022-08-03T11:59:16.665Z,10.30
2022-08-03T12:00:27.463Z,8.30
2022-08-03T12:03:03.602Z,12.70
2022-08-03T12:05:34.886Z,11.18
2022-08-03T12:08:04.100Z,9.13
2022-08-03T12:10:33.760Z,10.98
2022-08-03T12:13:01.613Z,9.35
2022-08-03T12:15:30.103Z,8.60
2022-08-03T12:17:58.390Z,10.27
2022-08-03T12:20:34.490Z,14.48
2022-08-03T12:23:04.329Z,12.80
2022-08-03T12:25:39.394Z,14.35
2022-08-03T12:28:28.377Z,16.52
2022-08-03T12:31:09.493Z,12.73
2022-08-03T12:33:56.708Z,13.60
2022-08-03T12:36:23.910Z,10.05
2022-08-03T12:38:58.306Z,10.43
2022-08-03T12:41:29.466Z,10.75
2022-08-03T12:43:56.754Z,10.43
2022-08-03T12:46:24.202Z,9.68
2022-08-03T12:49:01.848Z,10.63
2022-08-03T12:51:29.953Z,10.93
2022-08-03T12:53:57.812Z,12.07
2022-08-03T12:56:25.389Z,12.45
2022-08-03T12:58:53.258Z,10.63
2022-08-03T13:01:22.571Z,11.43
2022-08-03T13:03:52.845Z,11.15
2022-08-03T13:06:25.157Z,12.35
2022-08-03T13:09:05.982Z,11.18
2022-08-03T13:14:20.666Z,10.00
2022-08-03T13:16:48.772Z,9.50
2022-08-03T13:19:16.185Z,9.30
2022-08-03T13:22:02.196Z,9.95
2022-08-03T13:24:31.726Z,9.05
2022-08-03T13:26:59.345Z,9.32
2022-08-03T13:29:26.552Z,10.73
2022-08-03T13:31:54.002Z,12.32
2022-08-03T13:34:23.795Z,11.63
2022-08-03T13:37:10.079Z,9.63
2022-08-03T13:39:58.025Z,9.90
2022-08-03T13:42:25.323Z,8.90
2022-08-03T13:44:52.584Z,7.22
2022-08-03T13:47:20.448Z,7.80
2022-08-03T13:49:58.898Z,10.18
2022-08-03T13:52:29.521Z,9.27
2022-08-03T13:54:56.810Z,7.28
2022-08-03T13:58:03.513Z,7.70
2022-08-03T14:00:12.116Z,7.35
2022-08-03T14:02:39.296Z,6.68
2022-08-03T14:05:08.122Z,6.75
2022-08-03T14:07:35.398Z,8.48
2022-08-03T14:10:02.669Z,8.77
2022-08-03T14:12:29.866Z,6.95
2022-08-03T14:15:01.180Z,6.95
2022-08-03T14:17:42.089Z,6.38
2022-08-03T14:20:36.348Z,5.93
2022-08-03T14:22:57.160Z,5.80
2022-08-03T14:25:24.418Z,5.82
2022-08-03T14:27:51.637Z,8.88
2022-08-03T14:30:19.022Z,6.35
2022-08-03T14:32:46.481Z,6.10
2022-08-03T14:35:13.662Z,6.75
2022-08-03T14:37:40.838Z,6.65
2022-08-03T14:40:08.353Z,8.40
2022-08-03T14:42:35.555Z,7.22
2022-08-03T14:45:09.043Z,6.82
2022-08-03T14:50:31.971Z,6.95
2022-08-03T14:50:38.587Z,10.00
2022-08-03T14:53:09.117Z,8.30
2022-08-03T14:55:38.998Z,7.88
2022-08-03T14:58:19.699Z,8.82
2022-08-03T15:00:48.506Z,8.50
2022-08-03T15:03:17.012Z,8.88
2022-08-03T15:05:44.627Z,8.85
2022-08-03T15:08:11.879Z,8.25
2022-08-03T15:10:40.386Z,7.20
2022-08-03T15:13:12.194Z,8.52
2022-08-03T15:15:39.361Z,10.05
2022-08-03T15:18:06.719Z,11.07
2022-08-03T15:20:44.001Z,8.45
2022-08-03T15:23:12.622Z,8.80
2022-08-03T15:26:03.687Z,8.23
2022-08-03T15:28:27.086Z,9.38
2022-08-03T15:30:54.447Z,8.48
2022-08-03T15:33:21.626Z,8.63
2022-08-03T15:35:49.784Z,8.40
2022-08-03T15:38:17.262Z,8.07
2022-08-03T15:40:44.429Z,8.68
2022-08-03T15:43:11.676Z,9.27
2022-08-03T15:45:41.852Z,8.80
2022-08-03T15:48:09.285Z,7.68
2022-08-03T15:50:36.572Z,9.10
2022-08-03T15:53:04.050Z,8.32
2022-08-03T15:55:31.580Z,12.27
2022-08-03T15:59:04.155Z,9.60
2022-08-03T16:00:46.018Z,9.20
2022-08-03T16:03:13.196Z,8.57
2022-08-03T16:05:40.512Z,8.52
2022-08-03T16:08:13.227Z,8.93
2022-08-03T16:10:41.042Z,9.18
2022-08-03T16:13:08.642Z,8.63
2022-08-03T16:15:38.707Z,8.88
2022-08-03T16:18:07.471Z,9.02
2022-08-03T16:20:35.413Z,8.43
2022-08-03T16:23:10.823Z,8.30
2022-08-03T16:25:42.828Z,9.77
2022-08-03T16:28:14.247Z,15.10
2022-08-03T16:30:43.378Z,9.18
2022-08-03T16:33:10.971Z,9.05
2022-08-03T16:35:38.565Z,8.50
2022-08-03T16:38:09.772Z,10.13
2022-08-03T16:40:37.783Z,10.25
2022-08-03T16:43:18.411Z,9.60
2022-08-03T16:45:46.925Z,10.20
2022-08-03T16:48:14.412Z,10.05
2022-08-03T16:50:41.545Z,8.70
2022-08-03T16:53:09.731Z,9.73
2022-08-03T16:55:43.553Z,10.63
2022-08-03T16:58:34.751Z,11.40
2022-08-03T17:01:20.949Z,10.10
2022-08-03T17:03:57.419Z,8.63
2022-08-03T17:06:34.181Z,8.57
2022-08-03T17:11:29.091Z,8.63
2022-08-03T17:13:59.343Z,9.68
2022-08-03T17:16:26.574Z,8.55
2022-08-03T17:18:56.548Z,7.88
2022-08-03T17:21:26.541Z,9.30
2022-08-03T17:24:02.944Z,8.32
2022-08-03T17:26:32.058Z,8.27
2022-08-03T17:29:11.117Z,8.73
2022-08-03T17:34:16.040Z,9.98
2022-08-03T17:39:57.089Z,9.32
2022-08-03T17:42:30.851Z,9.63
2022-08-03T17:45:01.936Z,11.48
2022-08-03T17:47:41.155Z,10.23
2022-08-03T17:50:24.702Z,9.43
2022-08-03T17:52:55.843Z,11.43
2022-08-03T17:55:55.683Z,10.02
2022-08-03T17:58:20.898Z,10.70
2022-08-03T18:02:00.375Z,8.35
2022-08-03T18:03:58.499Z,9.85
2022-08-03T18:06:29.150Z,8.00
2022-08-03T18:08:57.954Z,10.13
2022-08-03T18:11:35.586Z,9.38
2022-08-03T18:14:10.006Z,7.38
2022-08-03T18:16:53.037Z,9.63
2022-08-03T18:19:20.851Z,10.35
2022-08-03T18:22:10.034Z,10.00
2022-08-03T18:24:39.091Z,11.77
2022-08-03T18:27:06.558Z,8.77
2022-08-03T18:29:35.535Z,9.90
2022-08-03T18:32:06.095Z,8.73
2022-08-03T18:34:36.637Z,11.68
2022-08-03T18:37:08.679Z,9.65
2022-08-03T18:39:50.312Z,9.88
2022-08-03T18:42:20.457Z,9.90
2022-08-03T18:44:55.944Z,10.20
2022-08-03T18:47:24.314Z,11.15
2022-08-03T18:49:52.418Z,10.38
2022-08-03T18:52:28.140Z,10.52
2022-08-03T18:55:19.821Z,9.20
2022-08-03T18:57:48.935Z,10.80
2022-08-03T19:03:10.222Z,10.52
2022-08-03T19:05:57.774Z,11.37
2022-08-03T19:08:47.981Z,10.90
2022-08-03T19:11:28.118Z,10.70
2022-08-03T19:13:57.765Z,10.98
2022-08-03T19:16:32.325Z,13.60
2022-08-03T19:19:02.151Z,12.55
2022-08-03T19:21:30.240Z,9.93
2022-08-03T19:24:00.865Z,10.85
2022-08-03T19:26:31.079Z,10.60
2022-08-03T19:28:59.222Z,11.18
2022-08-03T19:31:31.123Z,10.35
2022-08-03T19:34:03.263Z,10.63
2022-08-03T19:36:31.353Z,10.93
2022-08-03T19:38:59.170Z,10.95
2022-08-03T19:41:42.207Z,10.77
2022-08-03T19:44:11.473Z,11.80
2022-08-03T19:46:59.402Z,10.63
2022-08-03T19:49:57.061Z,10.85
2022-08-03T19:52:16.763Z,9.60
2022-08-03T19:54:53.746Z,10.48
2022-08-03T19:57:23.722Z,12.73
2022-08-03T19:59:51.893Z,9.68
2022-08-03T20:02:25.701Z,8.30
2022-08-03T20:04:55.635Z,9.82
2022-08-03T20:07:23.669Z,10.10
2022-08-03T20:09:56.187Z,10.77
2022-08-03T20:12:27.793Z,12.82
2022-08-03T20:14:58.825Z,10.80
2022-08-03T20:17:56.592Z,10.65
2022-08-03T20:20:14.499Z,10.90
2022-08-03T20:22:51.369Z,9.23
2022-08-03T20:25:23.520Z,10.95
2022-08-03T20:28:13.902Z,9.32
2022-08-03T20:30:43.235Z,11.50
2022-08-03T20:33:10.985Z,10.13
2022-08-03T20:35:38.137Z,11.23
2022-08-03T20:38:09.342Z,9.52
2022-08-03T20:40:36.867Z,8.65
2022-08-03T20:43:05.380Z,8.93
2022-08-03T20:46:00.599Z,10.20
2022-08-03T20:48:21.995Z,9.15
2022-08-03T20:50:49.588Z,10.00
2022-08-03T20:53:57.374Z,9.75
2022-08-03T20:56:04.990Z,9.25
2022-08-03T20:58:34.609Z,9.27
2022-08-03T21:01:03.737Z,10.60
2022-08-03T21:03:40.798Z,11.10
2022-08-03T21:06:27.472Z,13.45
2022-08-03T21:09:00.150Z,9.65
2022-08-03T21:11:41.475Z,11.70
2022-08-03T21:13:00.964Z,10.05
2022-08-03T21:14:20.586Z,10.52
2022-08-03T21:16:48.733Z,10.25
2022-08-03T21:19:17.070Z,11.20
2022-08-03T21:21:45.319Z,10.07
2022-08-03T21:24:13.491Z,11.45
2022-08-03T21:26:40.878Z,9.90
2022-08-03T21:29:08.830Z,11.50
2022-08-03T21:31:36.213Z,11.27
2022-08-03T21:34:05.192Z,12.70
2022-08-03T21:36:37.289Z,11.80
2022-08-03T21:39:05.877Z,11.48
2022-08-03T21:41:33.326Z,11.52
2022-08-03T21:44:00.987Z,12.38
2022-08-03T21:46:30.254Z,12.93
2022-08-03T21:50:07.442Z,14.10
2022-08-03T21:51:49.616Z,11.82
2022-08-03T21:54:17.454Z,13.35
2022-08-03T21:56:47.569Z,14.50
2022-08-03T21:59:18.968Z,14.30
2022-08-03T22:01:49.033Z,14.55
2022-08-03T22:04:53.339Z,16.48
2022-08-03T22:07:07.772Z,12.48
2022-08-03T22:09:35.542Z,13.82
2022-08-03T22:12:02.781Z,14.13
2022-08-03T22:14:30.560Z,13.85
2022-08-03T22:16:57.943Z,13.07
2022-08-03T22:19:25.085Z,13.38
2022-08-03T22:21:52.272Z,12.82
2022-08-03T22:24:23.947Z,15.15
2022-08-03T22:27:10.509Z,14.07
2022-08-03T22:29:40.670Z,12.55
2022-08-03T22:32:07.971Z,13.63
2022-08-03T22:34:35.267Z,14.90
2022-08-03T22:37:03.830Z,14.95
2022-08-03T22:39:32.152Z,14.43
2022-08-03T22:42:00.043Z,12.18
2022-08-03T22:44:28.063Z,14.18
2022-08-03T22:46:56.107Z,14.77
2022-08-03T22:49:23.296Z,14.95
2022-08-03T22:51:52.469Z,16.20
2022-08-03T22:54:19.748Z,14.32
2022-08-03T22:56:47.435Z,14.00
2022-08-03T22:59:40.391Z,15.73
2022-08-03T23:02:19.958Z,15.93
2022-08-03T23:04:56.467Z,16.08
2022-08-03T23:07:34.622Z,13.50
2022-08-03T23:10:02.765Z,15.63
2022-08-03T23:12:31.000Z,12.52
2022-08-03T23:15:01.109Z,14.57
2022-08-03T23:17:29.659Z,16.63
2022-08-03T23:19:58.607Z,12.02
2022-08-03T23:22:29.942Z,14.75
2022-08-03T23:24:58.396Z,14.13
2022-08-03T23:27:27.287Z,12.63
2022-08-03T23:29:54.722Z,12.82
2022-08-03T23:32:21.998Z,13.55
2022-08-03T23:35:09.765Z,13.30
2022-08-03T23:38:12.251Z,13.30
2022-08-03T23:40:29.440Z,13.40
2022-08-03T23:42:56.819Z,14.48
2022-08-03T23:45:25.946Z,13.32
2022-08-03T23:47:53.094Z,14.38
2022-08-03T23:50:20.300Z,15.32
2022-08-03T23:52:53.944Z,12.95
2022-08-03T23:55:27.351Z,15.10
2022-08-03T23:58:00.417Z,13.80
